ENKR

Kirkenes , Høybuktmoen Airport

Kirkenes, Norway
METAR ENKR 211320Z 36006KT 9999 SCT062TCU SCT180 18/12 Q1011 RMK WIND 731FT 05005KT
Observed Flight Rules
Jul-21 @ 13:20 UTC (27 minutes ago) Visual Flight Rules
Wind Visibility Clouds
360° at 6 knots 10,000+ meters
  • Scattered at 6,200' AGL
  • Scattered at 18,000' AGL
Temperatures Readings
Current 18°C / 64°F
Dewpoint 12°C / 54°F
Humidity 68%
Altimeter 29.85" Hg
Pressure 1011 hPa
Elevation 91
METAR ENKR 211320Z 36006KT 9999 SCT062TCU SCT180 18/12 Q1011 RMK WIND 731FT 05005KT
Observed Flight Rules
Jul-21 @ 13:20 UTC
(27 minutes ago)
VFR
Wind Visibility
360° at 6 knots 10,000+ meters
Clouds
  • Scattered at 6,200' AGL
  • Scattered at 18,000' AGL
Temperature Dewpoint
18°C / 64°F 12°C / 54°F
Humidity Altimeter Pressure
68% 29.85" Hg 1011 hPa